Corsa — V2PZ2 — position and weather

sailwx.info

Track history (hours):
 
Tides and Currents Weather Stations Pressure Air Temp Water Temp Dewpoint Dewpoint Depression Visibility Wind Speed Wind Dir Waves Ship Positions

Corsa

Last reported at 2014-Aug-22 21:33 UTC. Time now 2014-Aug-22 21:43 UTC.
Position N 36°22' E 026°54'.

Length 101 m; draft 6.2 m.

Type: Cargo ship. MMSI: 304624000.

Date/timePositionNaut miles runAvg speedWind from/ knotsBaromVisibWave heightAir tempDewpointWater temp
2014-Aug-22 21:33N 36°22' E 026°54'1111.3
2014-Aug-22 20:33N 36°13' E 027°02'1110.9
2014-Aug-22 19:33N 36°05' E 027°11'20011.1
2014-Aug-22 01:32N 33°02' E 028°50'1311.8
2014-Aug-22 00:26N 32°50' E 028°56'1212.0
2014-Aug-21 23:25N 32°39' E 029°02'1112.2
2014-Aug-21 22:34N 32°29' E 029°07'3511.8
2014-Aug-21 19:33N 31°57' E 029°25'1611.7
2014-Aug-21 18:09N 31°42' E 029°33'1011.7
2014-Aug-21 17:20N 31°33' E 029°37'295 7.2
2014-Aug-20 00:07N 36°02' E 027°10'2012.8
2014-Aug-19 22:31N 36°18' E 026°54'2612.7
2014-Aug-19 20:30N 36°38' E 026°34'1212.7
2014-Aug-19 19:33N 36°47' E 026°24'1312.9
2014-Aug-19 18:33N 36°57' E 026°13'1312.8
2014-Aug-19 17:33N 37°08' E 026°05'1412.9
2014-Aug-19 16:28N 37°20' E 025°57'1212.3
2014-Aug-19 15:32N 37°31' E 025°52'231 4.8
2014-Aug-17 15:24N 40°44' E 028°36'1112.4
2014-Aug-17 14:30N 40°45' E 028°51'1111.9
2014-Aug-17 13:33N 40°45' E 029°05'1312.5
2014-Aug-17 12:33N 40°45' E 029°22'16 1.1
2014-Aug-16 22:27N 40°46' E 029°42'0 0.0
2014-Aug-16 20:21N 40°46' E 029°42'0 0.0
2014-Aug-16 19:27N 40°46' E 029°42'6 1.1
2014-Aug-16 14:16N 40°45' E 029°35'6 9.0
2014-Aug-16 13:33N 40°45' E 029°27'1111.5
2014-Aug-16 12:33N 40°44' E 029°12'1413.4
2014-Aug-16 11:33N 40°44' E 028°54'1311.5
2014-Aug-16 10:23N 40°54' E 028°43'4 0.5
2014-Aug-16 03:06N 40°57' E 028°41'1 1.2
2014-Aug-16 02:23N 40°57' E 028°41'7 8.4
2014-Aug-16 01:32N 40°50' E 028°39'1212.2
2014-Aug-16 00:33N 40°38' E 028°42'2210.8
2014-Aug-15 22:33N 40°25' E 029°05'1 0.1
2014-Aug-15 14:33N 40°26' E 029°04'17 8.5
2014-Aug-15 12:32N 40°33' E 028°44'28 2.3
2014-Aug-15 00:18N 40°51' E 029°13'0 0.0
2014-Aug-14 23:30N 40°51' E 029°13'0 0.0
2014-Aug-14 22:30N 40°51' E 029°13'0 0.0
2014-Aug-14 21:30N 40°51' E 029°13'0 0.0
2014-Aug-14 20:24N 40°51' E 029°13'0 0.0
2014-Aug-14 19:06N 40°51' E 029°13'0 0.0
2014-Aug-14 18:30N 40°51' E 029°13'0 0.0
2014-Aug-14 17:30N 40°51' E 029°13'0 0.0
2014-Aug-14 16:24N 40°51' E 029°13'0 0.0
2014-Aug-14 15:30N 40°51' E 029°13'0 0.0
2014-Aug-14 14:30N 40°51' E 029°13'0 0.1
2014-Aug-14 13:30N 40°51' E 029°13'0 0.0
2014-Aug-14 12:30N 40°51' E 029°13'0 0.0
2014-Aug-14 11:30N 40°51' E 029°13'0 0.0
2014-Aug-14 10:30N 40°51' E 029°13'0 0.0
2014-Aug-14 08:30N 40°51' E 029°13'0 0.1
2014-Aug-14 07:12N 40°51' E 029°13'0 0.0
2014-Aug-14 06:24N 40°51' E 029°13'0 0.0
2014-Aug-14 05:30N 40°51' E 029°13'0 0.0
2014-Aug-14 04:30N 40°51' E 029°13'0 0.0
2014-Aug-14 03:30N 40°51' E 029°13'0 0.0
2014-Aug-14 02:30N 40°51' E 029°13'0 0.0
2014-Aug-14 01:30N 40°51' E 029°13'0 0.0
2014-Aug-14 00:24N 40°51' E 029°13'0 0.0
2014-Aug-13 23:30N 40°51' E 029°13'0 0.0
2014-Aug-13 22:18N 40°51' E 029°13'0 0.0
2014-Aug-13 21:30N 40°51' E 029°13'0 0.0
2014-Aug-13 20:30N 40°51' E 029°13'0 0.0
2014-Aug-13 19:24N 40°51' E 029°13'0 0.0
2014-Aug-13 18:24N 40°51' E 029°13'0 0.0
2014-Aug-13 17:30N 40°51' E 029°13'0 0.0
2014-Aug-13 16:30N 40°51' E 029°13'0 0.0
2014-Aug-13 15:24N 40°51' E 029°13'0 0.0
2014-Aug-13 14:30N 40°51' E 029°13'0 0.0
2014-Aug-13 13:24N 40°51' E 029°13'0 0.0
2014-Aug-13 12:30N 40°51' E 029°13'0 0.0
2014-Aug-13 11:24N 40°51' E 029°13'0 0.1
2014-Aug-13 10:30N 40°51' E 029°13'0 0.0
2014-Aug-13 09:18N 40°51' E 029°13'0 0.0
2014-Aug-13 08:30N 40°51' E 029°13'0 0.0
2014-Aug-13 07:30N 40°51' E 029°13'0 0.0
2014-Aug-13 05:30N 40°51' E 029°13'0 0.0
2014-Aug-13 04:30N 40°51' E 029°13'0 0.0
2014-Aug-13 03:30N 40°51' E 029°13'0 0.0
2014-Aug-13 02:30N 40°51' E 029°13'0 0.0
2014-Aug-13 01:30N 40°51' E 029°13'0 0.0
2014-Aug-13 00:24N 40°51' E 029°13'0 0.0
2014-Aug-12 23:30N 40°51' E 029°13'0 0.0
2014-Aug-12 22:30N 40°51' E 029°13'  
Track history (hours):
 
Tides and Currents Weather Stations Pressure Air Temp Water Temp Dewpoint Dewpoint Depression Visibility Wind Speed Wind Dir Waves Ship Positions

Corsa

Last reported at 2014-Aug-22 21:33 UTC. Time now 2014-Aug-22 21:43 UTC.
Position N 36°22' E 026°54'.

Length 101 m; draft 6.2 m.

Type: Cargo ship. MMSI: 304624000.

Date/timePositionNaut miles runAvg speedWind from/ knotsBaromVisibWave heightAir tempDewpointWater temp
2014-Aug-22 21:33N 36°22' E 026°54'1111.3
2014-Aug-22 20:33N 36°13' E 027°02'1110.9
2014-Aug-22 19:33N 36°05' E 027°11'20011.1
2014-Aug-22 01:32N 33°02' E 028°50'1311.8
2014-Aug-22 00:26N 32°50' E 028°56'1212.0
2014-Aug-21 23:25N 32°39' E 029°02'1112.2
2014-Aug-21 22:34N 32°29' E 029°07'3511.8
2014-Aug-21 19:33N 31°57' E 029°25'1611.7
2014-Aug-21 18:09N 31°42' E 029°33'1011.7
2014-Aug-21 17:20N 31°33' E 029°37'295 7.2
2014-Aug-20 00:07N 36°02' E 027°10'2012.8
2014-Aug-19 22:31N 36°18' E 026°54'2612.7
2014-Aug-19 20:30N 36°38' E 026°34'1212.7
2014-Aug-19 19:33N 36°47' E 026°24'1312.9
2014-Aug-19 18:33N 36°57' E 026°13'1312.8
2014-Aug-19 17:33N 37°08' E 026°05'1412.9
2014-Aug-19 16:28N 37°20' E 025°57'1212.3
2014-Aug-19 15:32N 37°31' E 025°52'231 4.8
2014-Aug-17 15:24N 40°44' E 028°36'1112.4
2014-Aug-17 14:30N 40°45' E 028°51'1111.9
2014-Aug-17 13:33N 40°45' E 029°05'1312.5
2014-Aug-17 12:33N 40°45' E 029°22'16 1.1
2014-Aug-16 22:27N 40°46' E 029°42'0 0.0
2014-Aug-16 20:21N 40°46' E 029°42'0 0.0
2014-Aug-16 19:27N 40°46' E 029°42'6 1.1
2014-Aug-16 14:16N 40°45' E 029°35'6 9.0
2014-Aug-16 13:33N 40°45' E 029°27'1111.5
2014-Aug-16 12:33N 40°44' E 029°12'1413.4
2014-Aug-16 11:33N 40°44' E 028°54'1311.5
2014-Aug-16 10:23N 40°54' E 028°43'4 0.5
2014-Aug-16 03:06N 40°57' E 028°41'1 1.2
2014-Aug-16 02:23N 40°57' E 028°41'7 8.4
2014-Aug-16 01:32N 40°50' E 028°39'1212.2
2014-Aug-16 00:33N 40°38' E 028°42'2210.8
2014-Aug-15 22:33N 40°25' E 029°05'1 0.1
2014-Aug-15 14:33N 40°26' E 029°04'17 8.5
2014-Aug-15 12:32N 40°33' E 028°44'28 2.3
2014-Aug-15 00:18N 40°51' E 029°13'0 0.0
2014-Aug-14 23:30N 40°51' E 029°13'0 0.0
2014-Aug-14 22:30N 40°51' E 029°13'0 0.0
2014-Aug-14 21:30N 40°51' E 029°13'0 0.0
2014-Aug-14 20:24N 40°51' E 029°13'0 0.0
2014-Aug-14 19:06N 40°51' E 029°13'0 0.0
2014-Aug-14 18:30N 40°51' E 029°13'0 0.0
2014-Aug-14 17:30N 40°51' E 029°13'0 0.0
2014-Aug-14 16:24N 40°51' E 029°13'0 0.0
2014-Aug-14 15:30N 40°51' E 029°13'0 0.0
2014-Aug-14 14:30N 40°51' E 029°13'0 0.1
2014-Aug-14 13:30N 40°51' E 029°13'0 0.0
2014-Aug-14 12:30N 40°51' E 029°13'0 0.0
2014-Aug-14 11:30N 40°51' E 029°13'0 0.0
2014-Aug-14 10:30N 40°51' E 029°13'0 0.0
2014-Aug-14 08:30N 40°51' E 029°13'0 0.1
2014-Aug-14 07:12N 40°51' E 029°13'0 0.0
2014-Aug-14 06:24N 40°51' E 029°13'0 0.0
2014-Aug-14 05:30N 40°51' E 029°13'0 0.0
2014-Aug-14 04:30N 40°51' E 029°13'0 0.0
2014-Aug-14 03:30N 40°51' E 029°13'0 0.0
2014-Aug-14 02:30N 40°51' E 029°13'0 0.0
2014-Aug-14 01:30N 40°51' E 029°13'0 0.0
2014-Aug-14 00:24N 40°51' E 029°13'0 0.0
2014-Aug-13 23:30N 40°51' E 029°13'0 0.0
2014-Aug-13 22:18N 40°51' E 029°13'0 0.0
2014-Aug-13 21:30N 40°51' E 029°13'0 0.0
2014-Aug-13 20:30N 40°51' E 029°13'0 0.0
2014-Aug-13 19:24N 40°51' E 029°13'0 0.0
2014-Aug-13 18:24N 40°51' E 029°13'0 0.0
2014-Aug-13 17:30N 40°51' E 029°13'0 0.0
2014-Aug-13 16:30N 40°51' E 029°13'0 0.0
2014-Aug-13 15:24N 40°51' E 029°13'0 0.0
2014-Aug-13 14:30N 40°51' E 029°13'0 0.0
2014-Aug-13 13:24N 40°51' E 029°13'0 0.0
2014-Aug-13 12:30N 40°51' E 029°13'0 0.0
2014-Aug-13 11:24N 40°51' E 029°13'0 0.1
2014-Aug-13 10:30N 40°51' E 029°13'0 0.0
2014-Aug-13 09:18N 40°51' E 029°13'0 0.0
2014-Aug-13 08:30N 40°51' E 029°13'0 0.0
2014-Aug-13 07:30N 40°51' E 029°13'0 0.0
2014-Aug-13 05:30N 40°51' E 029°13'0 0.0
2014-Aug-13 04:30N 40°51' E 029°13'0 0.0
2014-Aug-13 03:30N 40°51' E 029°13'0 0.0
2014-Aug-13 02:30N 40°51' E 029°13'0 0.0
2014-Aug-13 01:30N 40°51' E 029°13'0 0.0
2014-Aug-13 00:24N 40°51' E 029°13'0 0.0
2014-Aug-12 23:30N 40°51' E 029°13'0 0.0
2014-Aug-12 22:30N 40°51' E 029°13'  

Dump ship's entire track history